createdAt,value
2018-03-18T00:01:17.594Z,17.13
2018-03-18T00:03:45.373Z,17.22
2018-03-18T00:06:12.973Z,17.22
2018-03-18T00:08:40.681Z,17.26
2018-03-18T00:11:08.283Z,17.23
2018-03-18T00:13:35.843Z,17.25
2018-03-18T00:16:03.473Z,17.36
2018-03-18T00:18:31.032Z,17.40
2018-03-18T00:20:58.606Z,17.45
2018-03-18T00:23:26.181Z,17.48
2018-03-18T00:25:53.784Z,17.52
2018-03-18T00:28:21.352Z,17.60
2018-03-18T00:30:49.076Z,17.63
2018-03-18T00:33:16.896Z,17.78
2018-03-18T00:35:44.462Z,18.10
2018-03-18T00:38:12.206Z,18.44
2018-03-18T00:40:39.771Z,18.80
2018-03-18T00:43:07.567Z,19.08
2018-03-18T00:45:35.126Z,19.23
2018-03-18T00:48:02.759Z,19.27
2018-03-18T00:50:30.323Z,19.39
2018-03-18T00:52:58.350Z,19.39
2018-03-18T00:55:25.949Z,19.43
2018-03-18T00:57:53.638Z,19.37
2018-03-18T01:00:21.483Z,19.41
2018-03-18T01:02:49.037Z,19.86
2018-03-18T01:05:16.830Z,20.17
2018-03-18T01:07:44.387Z,20.40
2018-03-18T01:10:12.052Z,20.56
2018-03-18T01:12:39.609Z,20.66
2018-03-18T01:15:07.293Z,20.78
2018-03-18T01:17:35.124Z,20.88
2018-03-18T01:20:02.947Z,21.11
2018-03-18T01:22:30.546Z,21.28
2018-03-18T01:24:58.112Z,21.49
2018-03-18T01:27:25.864Z,21.47
2018-03-18T01:29:53.580Z,21.34
2018-03-18T01:32:21.195Z,21.19
2018-03-18T01:34:48.759Z,21.15
2018-03-18T01:37:16.566Z,21.11
2018-03-18T01:39:44.134Z,21.00
2018-03-18T01:42:11.694Z,20.95
2018-03-18T01:44:39.262Z,20.87
2018-03-18T01:47:06.836Z,20.70
2018-03-18T01:49:34.656Z,20.60
2018-03-18T01:52:02.475Z,20.56
2018-03-18T01:54:30.073Z,20.59
2018-03-18T01:56:57.814Z,20.54
2018-03-18T01:59:25.434Z,20.44
2018-03-18T02:01:52.986Z,20.35
2018-03-18T02:04:20.764Z,20.25
2018-03-18T02:06:48.342Z,20.11
2018-03-18T02:09:16.804Z,19.96
2018-03-18T02:11:44.393Z,19.87
2018-03-18T02:14:11.958Z,20.04
2018-03-18T02:16:39.757Z,20.21
2018-03-18T02:19:07.576Z,20.34
2018-03-18T02:21:35.274Z,20.75
2018-03-18T02:24:02.887Z,21.01
2018-03-18T02:26:30.454Z,21.27
2018-03-18T02:28:58.029Z,21.41
2018-03-18T02:31:25.647Z,21.46
2018-03-18T02:33:53.222Z,21.45
2018-03-18T02:36:20.792Z,21.40
2018-03-18T02:38:48.373Z,21.25
2018-03-18T02:41:15.952Z,21.22
2018-03-18T02:43:43.756Z,21.46
2018-03-18T02:46:11.337Z,21.70
2018-03-18T02:48:38.958Z,21.70
2018-03-18T02:51:06.686Z,21.56
2018-03-18T02:53:34.429Z,21.36
2018-03-18T02:56:02.014Z,21.12
2018-03-18T02:58:29.579Z,20.98
2018-03-18T03:00:57.163Z,20.81
2018-03-18T03:03:24.731Z,20.68
2018-03-18T03:05:52.518Z,20.58
2018-03-18T03:08:20.160Z,20.43
2018-03-18T03:10:47.955Z,20.21
2018-03-18T03:13:15.522Z,19.86
2018-03-18T03:15:43.087Z,19.51
2018-03-18T03:18:10.689Z,19.39
2018-03-18T03:20:38.426Z,19.09
2018-03-18T03:23:06.041Z,19.00
2018-03-18T03:25:33.765Z,18.88
2018-03-18T03:28:01.326Z,18.66
2018-03-18T03:30:28.899Z,18.52
2018-03-18T03:32:56.617Z,18.39
2018-03-18T03:35:24.185Z,18.24
2018-03-18T03:37:51.954Z,18.17
2018-03-18T03:40:19.566Z,18.06
2018-03-18T03:42:47.388Z,17.92
2018-03-18T03:45:15.108Z,17.83
2018-03-18T03:47:42.674Z,17.51
2018-03-18T03:50:10.238Z,17.44
2018-03-18T03:52:37.811Z,17.38
2018-03-18T03:55:05.495Z,17.28
2018-03-18T03:57:33.298Z,17.06
2018-03-18T04:00:01.116Z,16.95
2018-03-18T04:02:28.934Z,16.89
2018-03-18T04:04:56.785Z,16.76
2018-03-18T04:07:24.337Z,16.68
2018-03-18T04:09:51.906Z,16.57
2018-03-18T04:12:19.728Z,16.52
2018-03-18T04:14:47.341Z,16.52
2018-03-18T04:17:14.937Z,16.42
2018-03-18T04:19:42.662Z,16.36
2018-03-18T04:22:10.221Z,16.31
2018-03-18T04:24:37.854Z,16.27
2018-03-18T04:27:05.527Z,16.28
2018-03-18T04:29:33.220Z,16.27
2018-03-18T04:32:00.794Z,16.28
2018-03-18T04:34:28.355Z,16.22
2018-03-18T04:36:56.055Z,16.19
2018-03-18T04:39:23.696Z,16.14
2018-03-18T04:41:51.308Z,15.96
2018-03-18T04:44:18.861Z,15.78
2018-03-18T04:46:46.476Z,15.47
2018-03-18T04:49:14.050Z,15.22
2018-03-18T04:51:41.613Z,15.14
2018-03-18T04:54:09.414Z,15.09
2018-03-18T04:56:37.236Z,15.10
2018-03-18T04:59:05.053Z,14.97
2018-03-18T05:01:32.614Z,14.91
2018-03-18T05:04:00.189Z,14.73
2018-03-18T05:06:28.004Z,14.64
2018-03-18T05:08:55.823Z,14.50
2018-03-18T05:11:23.386Z,14.17
2018-03-18T05:13:51.161Z,13.97
2018-03-18T05:16:18.980Z,13.78
2018-03-18T05:18:46.549Z,13.65
2018-03-18T05:21:14.121Z,13.49
2018-03-18T05:23:41.710Z,13.44
2018-03-18T05:26:09.290Z,13.48
2018-03-18T05:28:36.861Z,13.50
2018-03-18T05:31:04.508Z,13.40
2018-03-18T05:33:32.103Z,13.30
2018-03-18T05:35:59.816Z,13.27
2018-03-18T05:38:27.432Z,13.21
2018-03-18T05:40:55.156Z,13.27
2018-03-18T05:43:22.717Z,13.19
2018-03-18T05:45:50.291Z,13.10
2018-03-18T05:48:17.927Z,13.10
2018-03-18T05:50:45.729Z,13.08
2018-03-18T05:53:13.342Z,13.04
2018-03-18T05:55:41.064Z,13.07
2018-03-18T05:58:08.622Z,12.98
2018-03-18T06:00:36.182Z,12.98
2018-03-18T06:03:03.742Z,12.87
2018-03-18T06:05:31.323Z,12.88
2018-03-18T06:07:58.945Z,12.98
2018-03-18T06:10:26.523Z,13.14
2018-03-18T06:12:54.253Z,13.15
2018-03-18T06:15:21.883Z,13.21
2018-03-18T06:17:49.453Z,13.23
2018-03-18T06:20:17.136Z,13.17
2018-03-18T06:22:44.710Z,13.17
2018-03-18T06:25:12.309Z,13.06
2018-03-18T06:27:39.885Z,13.09
2018-03-18T06:30:07.617Z,13.19
2018-03-18T06:32:35.187Z,13.32
2018-03-18T06:35:02.953Z,13.01
2018-03-18T06:37:30.717Z,12.89
2018-03-18T06:39:58.323Z,12.84
2018-03-18T06:42:25.907Z,12.83
2018-03-18T06:44:53.534Z,12.83
2018-03-18T06:47:21.165Z,12.68
2018-03-18T06:49:48.960Z,12.58
2018-03-18T06:52:16.536Z,12.49
2018-03-18T06:54:44.125Z,12.30
2018-03-18T06:57:11.722Z,12.08
2018-03-18T06:59:39.309Z,11.79
2018-03-18T07:02:07.056Z,11.47
2018-03-18T07:04:34.868Z,11.30
2018-03-18T07:07:02.478Z,11.34
2018-03-18T07:09:30.952Z,11.39
2018-03-18T07:11:58.725Z,11.16
2018-03-18T07:14:26.286Z,10.90
2018-03-18T07:16:53.913Z,10.72
2018-03-18T07:19:21.483Z,10.41
2018-03-18T07:21:49.088Z,10.27
2018-03-18T07:24:16.727Z,9.98
2018-03-18T07:26:44.290Z,9.93
2018-03-18T07:29:11.870Z,10.00
2018-03-18T07:31:39.434Z,10.00
2018-03-18T07:34:07.186Z,9.99
2018-03-18T07:36:34.830Z,9.93
2018-03-18T07:39:02.446Z,9.94
2018-03-18T07:41:30.240Z,9.67
2018-03-18T07:43:57.934Z,9.08
2018-03-18T07:46:26.228Z,8.92
2018-03-18T07:48:53.888Z,8.87
2018-03-18T07:51:22.619Z,8.83
2018-03-18T07:53:50.177Z,8.53
2018-03-18T07:56:18.166Z,8.57
2018-03-18T07:58:45.730Z,8.14
2018-03-18T08:01:14.208Z,7.75
2018-03-18T08:03:42.013Z,7.70
2018-03-18T08:06:10.361Z,7.73
2018-03-18T08:08:37.930Z,7.73
2018-03-18T08:11:05.530Z,7.77
2018-03-18T08:13:33.353Z,7.59
2018-03-18T08:16:00.914Z,7.25
2018-03-18T08:18:28.475Z,7.10
2018-03-18T08:20:56.057Z,7.07
2018-03-18T08:23:23.860Z,7.13
2018-03-18T08:25:52.094Z,7.11
2018-03-18T08:28:19.659Z,6.99
2018-03-18T08:30:47.692Z,6.97
2018-03-18T08:33:15.258Z,6.69
2018-03-18T08:35:43.802Z,6.43
2018-03-18T08:38:11.365Z,6.42
2018-03-18T08:40:39.764Z,6.30
2018-03-18T08:43:07.344Z,6.16
2018-03-18T08:45:35.318Z,6.13
2018-03-18T08:48:03.149Z,6.14
2018-03-18T08:50:30.710Z,6.14
2018-03-18T08:52:58.330Z,6.23
2018-03-18T08:55:25.890Z,6.22
2018-03-18T08:57:53.458Z,5.90
2018-03-18T09:00:21.045Z,5.75
2018-03-18T09:02:48.860Z,5.72
2018-03-18T09:05:16.467Z,5.52
2018-03-18T09:07:44.161Z,5.55
2018-03-18T09:10:12.012Z,5.49
2018-03-18T09:12:39.616Z,5.44
2018-03-18T09:15:07.179Z,5.48
2018-03-18T09:17:34.751Z,5.53
2018-03-18T09:20:02.321Z,5.61
2018-03-18T09:22:30.104Z,5.70
2018-03-18T09:24:58.563Z,5.50
2018-03-18T09:27:26.169Z,5.37
2018-03-18T09:29:53.924Z,5.35
2018-03-18T09:32:21.879Z,5.43
2018-03-18T09:34:49.697Z,5.29
2018-03-18T09:37:17.416Z,5.27
2018-03-18T09:39:45.153Z,5.35
2018-03-18T09:42:12.714Z,5.39
2018-03-18T09:44:40.527Z,5.32
2018-03-18T09:47:08.287Z,5.24
2018-03-18T09:49:35.861Z,5.26
2018-03-18T09:52:03.538Z,5.21
2018-03-18T09:54:31.108Z,5.33
2018-03-18T09:56:58.860Z,5.51
2018-03-18T09:59:26.462Z,5.45
2018-03-18T10:01:54.039Z,5.44
2018-03-18T10:04:21.782Z,5.36
2018-03-18T10:06:49.427Z,5.32
2018-03-18T10:09:17.238Z,5.22
2018-03-18T10:11:44.814Z,5.18
2018-03-18T10:14:12.481Z,5.24
2018-03-18T10:16:40.047Z,5.31
2018-03-18T10:19:07.794Z,5.37
2018-03-18T10:21:35.671Z,5.26
2018-03-18T10:24:03.271Z,5.21
2018-03-18T10:26:30.857Z,5.26
2018-03-18T10:28:58.482Z,5.25
2018-03-18T10:31:26.066Z,5.23
2018-03-18T10:33:53.644Z,5.24
2018-03-18T10:36:21.450Z,5.16
2018-03-18T10:38:49.272Z,5.23
2018-03-18T10:41:17.003Z,5.09
2018-03-18T10:43:44.625Z,5.19
2018-03-18T10:46:12.229Z,5.27
2018-03-18T10:48:39.994Z,5.28
2018-03-18T10:51:07.544Z,5.32
2018-03-18T10:53:35.120Z,5.12
2018-03-18T10:56:02.674Z,5.23
2018-03-18T10:58:30.512Z,5.36
2018-03-18T11:01:03.829Z,5.45
2018-03-18T11:03:31.458Z,5.50
2018-03-18T11:05:59.027Z,5.52
2018-03-18T11:08:26.593Z,5.58
2018-03-18T11:10:54.646Z,5.59
2018-03-18T11:13:22.964Z,5.67
2018-03-18T11:15:50.685Z,5.69
2018-03-18T11:18:18.250Z,5.53
2018-03-18T11:20:45.823Z,5.47
2018-03-18T11:23:13.435Z,5.49
2018-03-18T11:25:41.011Z,5.47
2018-03-18T11:28:08.783Z,5.45
2018-03-18T11:30:36.492Z,5.44
2018-03-18T11:33:04.312Z,5.39
2018-03-18T11:35:32.139Z,5.39
2018-03-18T11:37:59.715Z,5.39
2018-03-18T11:40:27.438Z,5.32
2018-03-18T11:42:55.064Z,5.22
2018-03-18T11:45:22.706Z,5.23
2018-03-18T11:47:50.324Z,5.23
2018-03-18T11:50:17.900Z,5.19
2018-03-18T11:52:45.562Z,5.22
2018-03-18T11:55:13.130Z,5.24
2018-03-18T11:57:40.683Z,5.26
2018-03-18T12:00:08.318Z,5.35
2018-03-18T12:02:36.183Z,5.32
2018-03-18T12:05:03.977Z,5.33
2018-03-18T12:07:31.735Z,5.35
2018-03-18T12:09:59.360Z,5.37
2018-03-18T12:12:27.019Z,5.38
2018-03-18T12:14:54.741Z,5.41
2018-03-18T12:17:22.556Z,5.28
2018-03-18T12:19:50.176Z,5.30
2018-03-18T12:22:17.861Z,5.29
2018-03-18T12:24:45.599Z,5.24
2018-03-18T12:27:13.171Z,5.26
2018-03-18T12:29:40.734Z,5.34
2018-03-18T12:32:08.556Z,5.35
2018-03-18T12:34:36.155Z,5.38
2018-03-18T12:37:03.774Z,5.46
2018-03-18T12:39:43.144Z,5.47
2018-03-18T12:42:10.944Z,5.37
2018-03-18T12:44:38.523Z,5.33
2018-03-18T12:47:06.312Z,5.29
2018-03-18T12:49:34.120Z,5.30
2018-03-18T12:52:01.762Z,5.33
2018-03-18T12:54:29.379Z,5.37
2018-03-18T12:56:57.055Z,5.44
2018-03-18T12:59:24.820Z,5.49
2018-03-18T13:01:52.564Z,5.57
2018-03-18T13:04:20.215Z,5.59
2018-03-18T13:06:48.048Z,5.49
2018-03-18T13:09:15.606Z,5.43
2018-03-18T13:11:43.255Z,5.49
2018-03-18T13:14:10.932Z,5.41
2018-03-18T13:16:38.568Z,5.34
2018-03-18T13:19:06.125Z,5.31
2018-03-18T13:21:33.772Z,5.35
2018-03-18T13:24:01.465Z,5.37
2018-03-18T13:26:29.111Z,5.36
2018-03-18T13:28:56.801Z,5.31
2018-03-18T13:31:24.384Z,5.29
2018-03-18T13:33:51.967Z,5.31
2018-03-18T13:36:19.542Z,5.27
2018-03-18T13:38:47.883Z,5.31
2018-03-18T13:41:15.512Z,5.36
2018-03-18T13:43:43.212Z,5.40
2018-03-18T13:46:11.215Z,5.47
2018-03-18T13:48:38.813Z,5.53
2018-03-18T13:51:06.416Z,5.61
2018-03-18T13:53:34.293Z,5.70
2018-03-18T13:56:02.079Z,5.74
2018-03-18T13:58:29.930Z,5.66
2018-03-18T14:00:57.545Z,5.43
2018-03-18T14:03:25.106Z,5.43
2018-03-18T14:05:52.945Z,5.48
2018-03-18T14:08:20.512Z,5.57
2018-03-18T14:10:48.112Z,5.53
2018-03-18T14:13:15.703Z,5.48
2018-03-18T14:15:43.457Z,5.54
2018-03-18T14:18:11.061Z,5.50
2018-03-18T14:20:38.686Z,5.59
2018-03-18T14:23:06.404Z,5.56
2018-03-18T14:25:34.060Z,5.47
2018-03-18T14:28:02.216Z,5.37
2018-03-18T14:30:29.929Z,5.28
2018-03-18T14:32:57.539Z,5.26
2018-03-18T14:35:25.245Z,5.30
2018-03-18T14:37:53.026Z,5.34
2018-03-18T14:40:20.721Z,5.28
2018-03-18T14:42:48.357Z,5.32
2018-03-18T14:45:15.945Z,5.36
2018-03-18T14:47:43.514Z,5.39
2018-03-18T14:50:11.136Z,5.29
2018-03-18T14:52:38.699Z,4.96
2018-03-18T14:55:06.550Z,4.78
2018-03-18T14:57:34.458Z,4.64
2018-03-18T15:00:02.200Z,4.57
2018-03-18T15:02:30.000Z,4.56
2018-03-18T15:04:57.823Z,4.62
2018-03-18T15:07:25.395Z,4.69
2018-03-18T15:09:53.165Z,4.71
2018-03-18T15:12:21.077Z,4.73
2018-03-18T15:14:49.189Z,4.76
2018-03-18T15:17:16.797Z,4.72
2018-03-18T15:19:44.632Z,4.77
2018-03-18T15:22:12.455Z,4.79
2018-03-18T15:24:40.268Z,4.94
2018-03-18T15:27:08.017Z,5.00
2018-03-18T15:29:35.808Z,5.10
2018-03-18T15:32:03.540Z,5.14
2018-03-18T15:34:31.439Z,5.18
2018-03-18T15:36:59.142Z,5.19
2018-03-18T15:39:26.732Z,5.24
2018-03-18T15:41:54.416Z,5.21
2018-03-18T15:44:22.217Z,5.08
2018-03-18T15:46:49.833Z,5.16
2018-03-18T15:49:17.653Z,5.22
2018-03-18T15:51:45.368Z,5.18
2018-03-18T15:54:13.025Z,5.17
2018-03-18T15:56:40.899Z,5.16
2018-03-18T15:59:08.478Z,5.15
2018-03-18T16:01:36.207Z,5.16
2018-03-18T16:04:03.963Z,5.10
2018-03-18T16:06:31.567Z,5.00
2018-03-18T16:08:59.198Z,4.91
2018-03-18T16:11:27.018Z,4.67
2018-03-18T16:13:54.641Z,4.50
2018-03-18T16:16:22.199Z,4.39
2018-03-18T16:18:49.973Z,4.34
2018-03-18T16:21:17.579Z,4.32
2018-03-18T16:23:45.142Z,4.38
2018-03-18T16:26:12.730Z,4.32
2018-03-18T16:28:40.298Z,4.29
2018-03-18T16:31:14.885Z,4.20
2018-03-18T16:33:42.454Z,4.18
2018-03-18T16:36:10.221Z,4.18
2018-03-18T16:38:37.793Z,4.04
2018-03-18T16:41:05.570Z,4.07
2018-03-18T16:43:33.377Z,4.02
2018-03-18T16:46:01.200Z,3.92
2018-03-18T16:48:28.779Z,3.91
2018-03-18T16:50:56.531Z,3.79
2018-03-18T16:53:24.152Z,3.67
2018-03-18T16:55:51.726Z,3.59
2018-03-18T16:58:19.454Z,3.56
2018-03-18T17:00:47.094Z,3.56
2018-03-18T17:03:14.697Z,3.53
2018-03-18T17:05:42.265Z,3.61
2018-03-18T17:08:09.917Z,3.62
2018-03-18T17:10:37.483Z,3.56
2018-03-18T17:13:05.188Z,3.55
2018-03-18T17:15:32.795Z,3.55
2018-03-18T17:18:00.450Z,3.47
2018-03-18T17:20:28.078Z,3.47
2018-03-18T17:22:55.865Z,3.50
2018-03-18T17:25:23.555Z,3.53
2018-03-18T17:27:51.411Z,3.56
2018-03-18T17:30:18.974Z,3.57
2018-03-18T17:32:46.738Z,3.53
2018-03-18T17:35:14.314Z,3.46
2018-03-18T17:37:41.924Z,3.32
2018-03-18T17:40:09.572Z,3.22
2018-03-18T17:42:37.370Z,3.27
2018-03-18T17:45:16.642Z,3.22
2018-03-18T17:47:55.950Z,3.23
2018-03-18T17:53:36.323Z,3.28
2018-03-18T17:56:15.881Z,3.29
2018-03-18T17:58:43.578Z,3.20
2018-03-18T18:01:11.170Z,3.08
2018-03-18T18:03:38.936Z,3.13
2018-03-18T18:06:06.726Z,3.13
2018-03-18T18:08:34.467Z,3.07
2018-03-18T18:11:02.045Z,3.13
2018-03-18T18:13:29.694Z,3.06
2018-03-18T18:15:57.312Z,3.02
2018-03-18T18:18:25.132Z,3.01
2018-03-18T18:20:52.734Z,2.94
2018-03-18T18:23:20.484Z,2.96
2018-03-18T18:25:48.192Z,3.04
2018-03-18T18:28:15.785Z,3.06
2018-03-18T18:30:43.351Z,3.12
2018-03-18T18:33:11.144Z,3.11
2018-03-18T18:35:38.730Z,3.14
2018-03-18T18:38:06.328Z,3.20
2018-03-18T18:40:33.918Z,3.24
2018-03-18T18:43:01.728Z,3.26
2018-03-18T18:45:29.316Z,3.33
2018-03-18T18:47:56.879Z,3.28
2018-03-18T18:50:24.507Z,3.33
2018-03-18T18:52:52.082Z,3.32
2018-03-18T18:55:19.700Z,3.38
2018-03-18T18:57:47.428Z,3.44
2018-03-18T19:00:14.990Z,3.44
2018-03-18T19:02:42.771Z,3.41
2018-03-18T19:05:10.372Z,3.45
2018-03-18T19:07:37.942Z,3.48
2018-03-18T19:10:05.724Z,3.50
2018-03-18T19:12:33.321Z,3.55
2018-03-18T19:15:00.951Z,3.56
2018-03-18T19:17:28.781Z,3.62
2018-03-18T19:19:56.334Z,3.65
2018-03-18T19:22:23.882Z,3.63
2018-03-18T19:24:51.593Z,3.61
2018-03-18T19:27:19.241Z,3.71
2018-03-18T19:29:47.068Z,3.65
2018-03-18T19:32:14.777Z,3.62
2018-03-18T19:34:42.610Z,3.65
2018-03-18T19:37:10.423Z,3.69
2018-03-18T19:39:38.066Z,3.75
2018-03-18T19:42:05.634Z,3.80
2018-03-18T19:44:33.482Z,3.84
2018-03-18T19:47:01.198Z,3.86
2018-03-18T19:49:28.758Z,3.97
2018-03-18T19:51:56.379Z,3.92
2018-03-18T19:54:24.160Z,3.89
2018-03-18T19:56:51.738Z,3.91
2018-03-18T19:59:19.301Z,3.94
2018-03-18T20:01:46.951Z,3.93
2018-03-18T20:04:14.724Z,3.90
2018-03-18T20:06:42.285Z,3.90
2018-03-18T20:09:09.856Z,3.93
2018-03-18T20:11:37.561Z,3.87
2018-03-18T20:14:05.181Z,3.88
2018-03-18T20:16:33.000Z,3.89
2018-03-18T20:19:00.825Z,3.86
2018-03-18T20:21:28.402Z,3.82
2018-03-18T20:23:56.160Z,3.81
2018-03-18T20:26:23.776Z,3.81
2018-03-18T20:28:51.495Z,3.75
2018-03-18T20:31:19.113Z,3.62
2018-03-18T20:33:46.719Z,3.58
2018-03-18T20:36:14.457Z,3.52
2018-03-18T20:38:42.027Z,3.53
2018-03-18T20:41:09.597Z,3.60
2018-03-18T20:43:37.314Z,3.43
2018-03-18T20:46:05.429Z,3.36
2018-03-18T20:48:33.040Z,3.30
2018-03-18T20:51:00.607Z,3.15
2018-03-18T20:53:28.485Z,3.10
2018-03-18T20:55:56.047Z,3.08
2018-03-18T20:58:23.852Z,3.00
2018-03-18T21:00:51.640Z,2.94
2018-03-18T21:03:19.232Z,2.92
2018-03-18T21:05:46.802Z,2.93
2018-03-18T21:08:14.594Z,2.91
2018-03-18T21:10:42.199Z,2.91
2018-03-18T21:13:09.759Z,2.87
2018-03-18T21:15:37.548Z,2.77
2018-03-18T21:18:05.257Z,2.67
2018-03-18T21:20:32.876Z,2.66
2018-03-18T21:23:00.570Z,2.65
2018-03-18T21:25:28.143Z,2.62
2018-03-18T21:27:55.983Z,2.59
2018-03-18T21:30:23.860Z,2.52
2018-03-18T21:32:51.490Z,2.54
2018-03-18T21:35:19.086Z,2.46
2018-03-18T21:37:46.710Z,2.37
2018-03-18T21:40:14.266Z,2.34
2018-03-18T21:42:41.844Z,2.40
2018-03-18T21:45:09.400Z,2.45
2018-03-18T21:47:36.968Z,2.47
2018-03-18T21:50:04.583Z,2.28
2018-03-18T21:52:32.209Z,2.29
2018-03-18T21:54:59.766Z,2.35
2018-03-18T21:57:27.324Z,2.36
2018-03-18T21:59:54.890Z,2.50
2018-03-18T22:02:22.590Z,2.50
2018-03-18T22:04:50.165Z,2.44
2018-03-18T22:07:17.723Z,2.50
2018-03-18T22:09:45.347Z,2.42
2018-03-18T22:12:12.918Z,2.38
2018-03-18T22:14:40.679Z,2.30
2018-03-18T22:17:08.498Z,2.32
2018-03-18T22:19:36.192Z,2.33
2018-03-18T22:22:03.802Z,2.39
2018-03-18T22:24:31.366Z,2.37
2018-03-18T22:26:58.959Z,2.39
2018-03-18T22:29:26.788Z,2.37
2018-03-18T22:31:54.412Z,2.28
2018-03-18T22:34:22.138Z,2.24
2018-03-18T22:36:49.709Z,2.21
2018-03-18T22:39:17.447Z,2.16
2018-03-18T22:41:45.003Z,2.14
2018-03-18T22:44:12.578Z,2.10
2018-03-18T22:46:40.147Z,2.08
2018-03-18T22:49:07.722Z,2.05
2018-03-18T22:51:35.453Z,2.03
2018-03-18T22:54:03.268Z,2.04
2018-03-18T22:56:31.057Z,2.01
2018-03-18T22:58:58.628Z,2.08
2018-03-18T23:01:26.197Z,2.08
2018-03-18T23:03:53.905Z,1.98
2018-03-18T23:06:21.474Z,1.96
2018-03-18T23:08:49.034Z,1.99
2018-03-18T23:11:16.611Z,1.85
2018-03-18T23:13:44.412Z,1.80
2018-03-18T23:16:12.029Z,1.70
2018-03-18T23:18:39.964Z,1.63
2018-03-18T23:21:07.526Z,1.63
2018-03-18T23:23:35.099Z,1.58
2018-03-18T23:26:02.668Z,1.56
2018-03-18T23:28:30.259Z,1.53
2018-03-18T23:30:57.850Z,1.50
2018-03-18T23:33:25.657Z,1.42
2018-03-18T23:35:53.375Z,1.43
2018-03-18T23:38:21.296Z,1.46
2018-03-18T23:40:49.094Z,1.52
2018-03-18T23:43:16.667Z,1.48
2018-03-18T23:45:44.454Z,1.42
2018-03-18T23:48:12.047Z,1.38
2018-03-18T23:50:40.259Z,1.29
2018-03-18T23:53:07.979Z,1.20
2018-03-18T23:55:35.691Z,1.13
2018-03-18T23:58:03.253Z,1.04
